createdAt,value
2017-11-04T00:00:12.141Z,925.59
2017-11-04T00:00:25.580Z,925.64
2017-11-04T00:00:38.469Z,925.64
2017-11-04T00:00:50.277Z,925.6
2017-11-04T00:01:03.741Z,925.62
2017-11-04T00:01:17.230Z,925.59
2017-11-04T00:01:30.658Z,925.55
2017-11-04T00:01:44.130Z,925.61
2017-11-04T00:01:57.614Z,925.53
2017-11-04T00:02:11.113Z,925.54
2017-11-04T00:02:24.035Z,925.54
2017-11-04T00:02:36.922Z,925.56
2017-11-04T00:02:50.360Z,925.54
2017-11-04T00:03:03.815Z,925.56
2017-11-04T00:03:16.749Z,925.53
2017-11-04T00:03:30.213Z,925.53
2017-11-04T00:03:43.668Z,925.51
2017-11-04T00:03:57.171Z,925.49
2017-11-04T00:04:10.708Z,925.49
2017-11-04T00:04:24.122Z,925.44
2017-11-04T00:04:37.571Z,925.45
2017-11-04T00:04:51.042Z,925.42
2017-11-04T00:05:03.371Z,925.46
2017-11-04T00:05:16.794Z,925.43
2017-11-04T00:05:30.213Z,925.43
2017-11-04T00:05:43.668Z,925.45
2017-11-04T00:05:56.611Z,925.42
2017-11-04T00:06:10.062Z,925.42
2017-11-04T00:06:23.477Z,925.44
2017-11-04T00:06:36.888Z,925.43
2017-11-04T00:06:50.354Z,925.4
2017-11-04T00:07:03.812Z,925.41
2017-11-04T00:07:17.243Z,925.37
2017-11-04T00:07:30.689Z,925.39
2017-11-04T00:07:44.114Z,925.38
2017-11-04T00:07:57.517Z,925.39
2017-11-04T00:08:10.469Z,925.37
2017-11-04T00:08:23.885Z,925.38
2017-11-04T00:08:37.379Z,925.37
2017-11-04T00:08:50.832Z,925.35
2017-11-04T00:09:04.256Z,925.34
2017-11-04T00:09:17.162Z,925.37
2017-11-04T00:09:30.050Z,925.38
2017-11-04T00:09:42.953Z,925.36
2017-11-04T00:09:56.371Z,925.36
2017-11-04T00:10:09.848Z,925.38
2017-11-04T00:10:23.305Z,925.39
2017-11-04T00:10:36.267Z,925.37
2017-11-04T00:10:48.584Z,925.35
2017-11-04T00:11:01.488Z,925.38
2017-11-04T00:11:14.947Z,925.36
2017-11-04T00:11:27.848Z,925.37
2017-11-04T00:11:41.453Z,925.34
2017-11-04T00:11:54.334Z,925.39
2017-11-04T00:12:07.299Z,925.37
2017-11-04T00:12:20.777Z,925.4
2017-11-04T00:12:34.255Z,925.41
2017-11-04T00:12:47.762Z,925.38
2017-11-04T00:13:01.242Z,925.41
2017-11-04T00:13:14.741Z,925.4
2017-11-04T00:13:28.191Z,925.42
2017-11-04T00:13:41.113Z,925.42
2017-11-04T00:13:54.003Z,925.43
2017-11-04T00:14:06.921Z,925.44
2017-11-04T00:14:20.442Z,925.45
2017-11-04T00:14:33.876Z,925.46
2017-11-04T00:14:46.788Z,925.46
2017-11-04T00:14:59.698Z,925.42
2017-11-04T00:15:11.495Z,925.43
2017-11-04T00:15:24.414Z,925.45
2017-11-04T00:15:37.879Z,925.46
2017-11-04T00:15:51.362Z,925.51
2017-11-04T00:16:04.844Z,925.47
2017-11-04T00:16:17.791Z,925.49
2017-11-04T00:16:30.685Z,925.51
2017-11-04T00:16:43.515Z,925.5
2017-11-04T00:16:56.933Z,925.5
2017-11-04T00:17:09.299Z,925.52
2017-11-04T00:17:22.134Z,925.54
2017-11-04T00:17:35.060Z,925.56
2017-11-04T00:17:48.547Z,925.52
2017-11-04T00:18:00.914Z,925.55
2017-11-04T00:18:14.381Z,925.57
2017-11-04T00:18:27.816Z,925.56
2017-11-04T00:18:40.721Z,925.56
2017-11-04T00:18:54.137Z,925.6
2017-11-04T00:19:07.563Z,925.63
2017-11-04T00:19:20.973Z,925.62
2017-11-04T00:19:33.868Z,925.61
2017-11-04T00:19:46.769Z,925.64
2017-11-04T00:20:00.233Z,925.66
2017-11-04T00:20:13.170Z,925.66
2017-11-04T00:20:26.644Z,925.66
2017-11-04T00:20:39.000Z,925.67
2017-11-04T00:20:52.489Z,925.7
2017-11-04T00:21:05.434Z,925.68
2017-11-04T00:21:18.906Z,925.7
2017-11-04T00:21:31.819Z,925.7
2017-11-04T00:21:45.266Z,925.7
2017-11-04T00:21:58.131Z,925.72
2017-11-04T00:22:11.568Z,925.72
2017-11-04T00:22:24.480Z,925.72
2017-11-04T00:22:37.955Z,925.77
2017-11-04T00:22:50.868Z,925.71
2017-11-04T00:23:03.787Z,925.74
2017-11-04T00:23:16.720Z,925.72
2017-11-04T00:23:30.151Z,925.76
2017-11-04T00:23:43.620Z,925.72
2017-11-04T00:23:56.579Z,925.75
2017-11-04T00:24:08.932Z,925.72
2017-11-04T00:24:21.892Z,925.77
2017-11-04T00:24:34.321Z,925.79
2017-11-04T00:24:47.752Z,925.76
2017-11-04T00:25:01.192Z,925.75
2017-11-04T00:25:14.140Z,925.8
2017-11-04T00:25:27.008Z,925.78
2017-11-04T00:25:40.678Z,925.79
2017-11-04T00:25:54.091Z,925.79
2017-11-04T00:26:07.533Z,925.8
2017-11-04T00:26:20.953Z,925.81
2017-11-04T00:26:33.267Z,925.85
2017-11-04T00:26:46.162Z,925.85
2017-11-04T00:26:59.667Z,925.86
2017-11-04T00:27:13.073Z,925.84
2017-11-04T00:27:26.467Z,925.83
2017-11-04T00:27:39.953Z,925.84
2017-11-04T00:27:52.873Z,925.81
2017-11-04T00:28:05.807Z,925.86
2017-11-04T00:28:18.698Z,925.85
2017-11-04T00:28:31.041Z,925.84
2017-11-04T00:28:43.450Z,925.88
2017-11-04T00:28:56.964Z,925.88
2017-11-04T00:29:10.387Z,925.89
2017-11-04T00:29:24.411Z,925.92
2017-11-04T00:29:37.266Z,925.87
2017-11-04T00:29:50.654Z,925.86
2017-11-04T00:30:03.492Z,925.88
2017-11-04T00:30:16.389Z,925.9
2017-11-04T00:30:29.283Z,925.89
2017-11-04T00:30:42.183Z,925.87
2017-11-04T00:30:55.689Z,925.88
2017-11-04T00:31:08.589Z,925.9
2017-11-04T00:31:21.484Z,925.87
2017-11-04T00:31:34.911Z,925.85
2017-11-04T00:31:47.801Z,925.9
2017-11-04T00:32:01.244Z,925.9
2017-11-04T00:32:14.150Z,925.88
2017-11-04T00:32:27.601Z,925.89
2017-11-04T00:32:41.020Z,925.9
2017-11-04T00:32:53.946Z,925.91
2017-11-04T00:33:06.850Z,925.87
2017-11-04T00:33:19.763Z,925.89
2017-11-04T00:33:33.197Z,925.92
2017-11-04T00:33:46.630Z,925.89
2017-11-04T00:33:59.523Z,925.9
2017-11-04T00:34:12.473Z,925.89
2017-11-04T00:34:25.438Z,925.93
2017-11-04T00:34:38.323Z,925.93
2017-11-04T00:34:51.252Z,925.91
2017-11-04T00:35:04.222Z,925.92
2017-11-04T00:35:17.657Z,925.93
2017-11-04T00:35:31.032Z,925.95
2017-11-04T00:35:43.941Z,925.94
2017-11-04T00:35:56.900Z,925.94
2017-11-04T00:36:10.336Z,925.94
2017-11-04T00:36:22.201Z,925.94
2017-11-04T00:36:35.650Z,925.97
2017-11-04T00:36:49.154Z,925.96
2017-11-04T00:37:02.591Z,925.95
2017-11-04T00:37:15.530Z,926
2017-11-04T00:37:28.911Z,925.98
2017-11-04T00:37:41.305Z,925.99
2017-11-04T00:37:54.697Z,926
2017-11-04T00:38:08.101Z,925.98
2017-11-04T00:38:20.945Z,925.98
2017-11-04T00:38:34.401Z,925.99
2017-11-04T00:38:47.831Z,926
2017-11-04T00:39:00.175Z,926.01
2017-11-04T00:39:13.666Z,926.01
2017-11-04T00:39:26.563Z,926.02
2017-11-04T00:39:40.062Z,926.01
2017-11-04T00:39:52.955Z,926.02
2017-11-04T00:40:06.400Z,926.02
2017-11-04T00:40:19.843Z,926
2017-11-04T00:40:33.238Z,926.05
2017-11-04T00:40:46.132Z,926.05
2017-11-04T00:40:59.614Z,926.04
2017-11-04T00:41:13.030Z,926.03
2017-11-04T00:41:26.484Z,926.02
2017-11-04T00:41:39.902Z,926.06
2017-11-04T00:41:52.838Z,926.06
2017-11-04T00:42:05.809Z,926.01
2017-11-04T00:42:19.200Z,926.05
2017-11-04T00:42:32.161Z,926.04
2017-11-04T00:42:45.062Z,926.02
2017-11-04T00:42:58.521Z,926.05
2017-11-04T00:43:11.948Z,926.01
2017-11-04T00:43:24.333Z,926
2017-11-04T00:43:37.817Z,926.02
2017-11-04T00:43:50.663Z,926.03
2017-11-04T00:44:03.575Z,925.99
2017-11-04T00:44:15.954Z,925.99
2017-11-04T00:44:29.585Z,925.99
2017-11-04T00:44:42.527Z,926
2017-11-04T00:44:54.897Z,925.97
2017-11-04T00:45:07.841Z,926
2017-11-04T00:45:20.724Z,926.03
2017-11-04T00:45:34.209Z,926
2017-11-04T00:45:47.650Z,925.99
2017-11-04T00:46:01.147Z,926.03
2017-11-04T00:46:14.571Z,926
2017-11-04T00:46:27.996Z,926.01
2017-11-04T00:46:40.875Z,926.01
2017-11-04T00:46:53.799Z,926.01
2017-11-04T00:47:07.246Z,926.01
2017-11-04T00:47:20.754Z,926.03
2017-11-04T00:47:34.168Z,926
2017-11-04T00:47:47.702Z,926.03
2017-11-04T00:48:01.174Z,925.99
2017-11-04T00:48:14.687Z,926
2017-11-04T00:48:28.193Z,926.03
2017-11-04T00:48:41.139Z,926.03
2017-11-04T00:48:54.633Z,926.01
2017-11-04T00:49:08.084Z,926.04
2017-11-04T00:49:20.937Z,926.05
2017-11-04T00:49:33.831Z,926.09
2017-11-04T00:49:46.729Z,926.07
2017-11-04T00:49:59.597Z,926.03
2017-11-04T00:50:13.090Z,926.05
2017-11-04T00:50:26.543Z,926.04
2017-11-04T00:50:40.056Z,926
2017-11-04T00:50:53.490Z,926.04
2017-11-04T00:51:06.924Z,926.02
2017-11-04T00:51:20.328Z,926.01
2017-11-04T00:51:32.642Z,926.04
2017-11-04T00:51:45.527Z,925.98
2017-11-04T00:51:57.852Z,925.99
2017-11-04T00:52:10.773Z,925.97
2017-11-04T00:52:23.678Z,926.03
2017-11-04T00:52:35.473Z,925.99
2017-11-04T00:52:48.396Z,926.01
2017-11-04T00:53:01.869Z,926.03
2017-11-04T00:53:14.790Z,926.03
2017-11-04T00:53:28.261Z,925.99
2017-11-04T00:53:41.717Z,925.99
2017-11-04T00:53:55.193Z,926
2017-11-04T00:54:07.580Z,926.04
2017-11-04T00:54:20.972Z,926.01
2017-11-04T00:54:34.433Z,926.02
2017-11-04T00:54:47.944Z,926.02
2017-11-04T00:55:00.880Z,926.02
2017-11-04T00:55:13.789Z,926.02
2017-11-04T00:55:27.223Z,925.99
2017-11-04T00:55:40.672Z,926.03
2017-11-04T00:55:54.088Z,926.03
2017-11-04T00:56:07.506Z,926.01
2017-11-04T00:56:20.935Z,926.02
2017-11-04T00:56:33.833Z,926.02
2017-11-04T00:56:46.712Z,926.01
2017-11-04T00:56:59.670Z,926.02
2017-11-04T00:57:13.117Z,926
2017-11-04T00:57:26.081Z,926.01
2017-11-04T00:57:39.490Z,926
2017-11-04T00:57:52.368Z,926.01
2017-11-04T00:58:05.899Z,926.01
2017-11-04T00:58:19.364Z,926.04
2017-11-04T00:58:31.738Z,926
2017-11-04T00:58:45.180Z,926.01
2017-11-04T00:58:58.657Z,926.01
2017-11-04T00:59:11.595Z,926.01
2017-11-04T00:59:25.404Z,926
2017-11-04T00:59:38.291Z,926.01
2017-11-04T00:59:51.206Z,926
2017-11-04T01:00:03.540Z,926.03
2017-11-04T01:00:16.978Z,926.01
2017-11-04T01:00:29.346Z,926.02
2017-11-04T01:00:42.800Z,926
2017-11-04T01:00:55.732Z,926.01
2017-11-04T01:01:09.225Z,925.97
2017-11-04T01:01:22.683Z,926.01
2017-11-04T01:01:34.985Z,926.01
2017-11-04T01:01:47.887Z,926
2017-11-04T01:02:01.389Z,926
2017-11-04T01:02:14.323Z,926.02
2017-11-04T01:02:27.823Z,926.02
2017-11-04T01:02:41.301Z,926.01
2017-11-04T01:02:54.736Z,926.03
2017-11-04T01:03:08.228Z,926.03
2017-11-04T01:03:20.054Z,926.03
2017-11-04T01:03:33.506Z,926.04
2017-11-04T01:03:47.015Z,926.05
2017-11-04T01:03:59.957Z,926.08
2017-11-04T01:04:12.289Z,926.08
2017-11-04T01:04:25.384Z,926.05
2017-11-04T01:04:38.870Z,926.1
2017-11-04T01:04:52.303Z,926.1
2017-11-04T01:05:05.775Z,926.1
2017-11-04T01:05:18.683Z,926.13
2017-11-04T01:05:31.640Z,926.1
2017-11-04T01:05:45.046Z,926.12
2017-11-04T01:05:57.905Z,926.13
2017-11-04T01:06:10.805Z,926.13
2017-11-04T01:06:23.721Z,926.11
2017-11-04T01:06:36.651Z,926.14
2017-11-04T01:06:49.547Z,926.18
2017-11-04T01:07:02.997Z,926.16
2017-11-04T01:07:15.363Z,926.18
2017-11-04T01:07:28.807Z,926.18
2017-11-04T01:07:42.280Z,926.17
2017-11-04T01:07:55.188Z,926.2
2017-11-04T01:08:08.636Z,926.19
2017-11-04T01:08:21.582Z,926.2
2017-11-04T01:08:34.961Z,926.21
2017-11-04T01:08:48.467Z,926.22
2017-11-04T01:09:00.853Z,926.22
2017-11-04T01:09:13.231Z,926.23
2017-11-04T01:09:26.699Z,926.25
2017-11-04T01:09:40.197Z,926.25
2017-11-04T01:09:53.647Z,926.24
2017-11-04T01:10:06.575Z,926.25
2017-11-04T01:10:20.093Z,926.26
2017-11-04T01:10:33.591Z,926.26
2017-11-04T01:10:47.088Z,926.23
2017-11-04T01:11:00.572Z,926.21
2017-11-04T01:11:14.038Z,926.25
2017-11-04T01:11:26.436Z,926.24
2017-11-04T01:11:39.859Z,926.25
2017-11-04T01:11:53.283Z,926.22
2017-11-04T01:12:06.694Z,926.21
2017-11-04T01:12:19.567Z,926.25
2017-11-04T01:12:32.984Z,926.22
2017-11-04T01:12:46.460Z,926.25
2017-11-04T01:12:58.819Z,926.26
2017-11-04T01:13:11.192Z,926.25
2017-11-04T01:13:24.717Z,926.25
2017-11-04T01:13:38.190Z,926.27
2017-11-04T01:13:51.611Z,926.25
2017-11-04T01:14:05.006Z,926.26
2017-11-04T01:14:18.464Z,926.31
2017-11-04T01:14:31.972Z,926.27
2017-11-04T01:14:45.450Z,926.28
2017-11-04T01:14:58.902Z,926.3
2017-11-04T01:15:12.323Z,926.3
2017-11-04T01:15:25.843Z,926.29
2017-11-04T01:15:39.284Z,926.3
2017-11-04T01:15:51.623Z,926.33
2017-11-04T01:16:05.051Z,926.36
2017-11-04T01:16:17.984Z,926.31
2017-11-04T01:16:30.362Z,926.33
2017-11-04T01:16:43.806Z,926.35
2017-11-04T01:16:56.712Z,926.37
2017-11-04T01:17:09.624Z,926.35
2017-11-04T01:17:23.030Z,926.38
2017-11-04T01:17:34.838Z,926.38
2017-11-04T01:17:47.748Z,926.37
2017-11-04T01:18:00.176Z,926.42
2017-11-04T01:18:13.083Z,926.38
2017-11-04T01:18:26.530Z,926.37
2017-11-04T01:18:39.979Z,926.39
2017-11-04T01:18:53.373Z,926.36
2017-11-04T01:19:06.284Z,926.37
2017-11-04T01:19:19.706Z,926.36
2017-11-04T01:19:33.268Z,926.34
2017-11-04T01:19:46.751Z,926.35
2017-11-04T01:20:00.185Z,926.31
2017-11-04T01:20:13.077Z,926.32
2017-11-04T01:20:26.580Z,926.35
2017-11-04T01:20:39.460Z,926.31
2017-11-04T01:20:52.391Z,926.3
2017-11-04T01:21:05.320Z,926.31
2017-11-04T01:21:18.191Z,926.34
2017-11-04T01:21:31.607Z,926.32
2017-11-04T01:21:45.090Z,926.3
2017-11-04T01:21:58.505Z,926.34
2017-11-04T01:22:11.972Z,926.31
2017-11-04T01:22:24.892Z,926.36
2017-11-04T01:22:37.817Z,926.33
2017-11-04T01:22:50.201Z,926.34
2017-11-04T01:23:03.609Z,926.35
2017-11-04T01:23:17.048Z,926.33
2017-11-04T01:23:30.505Z,926.33
2017-11-04T01:23:43.380Z,926.38
2017-11-04T01:23:56.814Z,926.4
2017-11-04T01:24:10.272Z,926.41
2017-11-04T01:24:22.650Z,926.41
2017-11-04T01:24:35.545Z,926.39
2017-11-04T01:24:49.018Z,926.41
2017-11-04T01:25:01.964Z,926.41
2017-11-04T01:25:14.285Z,926.44
2017-11-04T01:25:26.631Z,926.46
2017-11-04T01:25:39.574Z,926.46
2017-11-04T01:25:52.975Z,926.42
2017-11-04T01:26:06.395Z,926.46
2017-11-04T01:26:19.805Z,926.47
2017-11-04T01:26:33.198Z,926.49
2017-11-04T01:26:46.627Z,926.48
2017-11-04T01:26:59.580Z,926.48
2017-11-04T01:27:13.004Z,926.47
2017-11-04T01:27:26.463Z,926.47
2017-11-04T01:27:39.960Z,926.46
2017-11-04T01:27:53.443Z,926.45
2017-11-04T01:28:05.783Z,926.48
2017-11-04T01:28:19.235Z,926.49
2017-11-04T01:28:32.679Z,926.49
2017-11-04T01:28:46.124Z,926.45
2017-11-04T01:28:59.537Z,926.49
2017-11-04T01:29:12.930Z,926.43
2017-11-04T01:29:26.411Z,926.47
2017-11-04T01:29:40.074Z,926.48
2017-11-04T01:29:53.529Z,926.5
2017-11-04T01:30:06.384Z,926.49
2017-11-04T01:30:19.816Z,926.48
2017-11-04T01:30:33.314Z,926.51
2017-11-04T01:30:46.216Z,926.48
2017-11-04T01:30:59.088Z,926.51
2017-11-04T01:31:11.982Z,926.49
2017-11-04T01:31:24.864Z,926.45
2017-11-04T01:31:37.782Z,926.5
2017-11-04T01:31:50.724Z,926.47
2017-11-04T01:32:04.160Z,926.49
2017-11-04T01:32:17.029Z,926.52
2017-11-04T01:32:29.377Z,926.54
2017-11-04T01:32:42.823Z,926.52
2017-11-04T01:32:56.308Z,926.51
2017-11-04T01:33:09.207Z,926.51
2017-11-04T01:33:22.617Z,926.53
2017-11-04T01:33:35.024Z,926.51
2017-11-04T01:33:48.482Z,926.51
2017-11-04T01:34:01.924Z,926.51
2017-11-04T01:34:15.362Z,926.52
2017-11-04T01:34:28.289Z,926.52
2017-11-04T01:34:41.862Z,926.5
2017-11-04T01:34:55.299Z,926.52
2017-11-04T01:35:08.180Z,926.49
2017-11-04T01:35:21.593Z,926.49
2017-11-04T01:35:34.593Z,926.51
2017-11-04T01:35:48.015Z,926.52
2017-11-04T01:36:01.468Z,926.51
2017-11-04T01:36:14.935Z,926.55
2017-11-04T01:36:28.422Z,926.54
2017-11-04T01:36:41.861Z,926.56
2017-11-04T01:36:54.797Z,926.56
2017-11-04T01:37:07.663Z,926.59
2017-11-04T01:37:21.096Z,926.57
2017-11-04T01:37:34.021Z,926.56
2017-11-04T01:37:46.924Z,926.58
2017-11-04T01:38:00.370Z,926.57
2017-11-04T01:38:13.814Z,926.6
2017-11-04T01:38:27.297Z,926.61
2017-11-04T01:38:40.706Z,926.58
2017-11-04T01:38:54.203Z,926.6
2017-11-04T01:39:07.135Z,926.58
2017-11-04T01:39:20.038Z,926.61
2017-11-04T01:39:32.390Z,926.57
2017-11-04T01:39:45.855Z,926.59
2017-11-04T01:39:58.755Z,926.6
2017-11-04T01:40:11.149Z,926.61
2017-11-04T01:40:24.073Z,926.61
2017-11-04T01:40:36.467Z,926.65
2017-11-04T01:40:49.358Z,926.62
2017-11-04T01:41:03.063Z,926.62
2017-11-04T01:41:16.001Z,926.64
2017-11-04T01:41:29.435Z,926.65
2017-11-04T01:41:42.872Z,926.65
2017-11-04T01:41:56.325Z,926.65
2017-11-04T01:42:09.826Z,926.66
2017-11-04T01:42:23.290Z,926.63
2017-11-04T01:42:36.758Z,926.64
2017-11-04T01:42:49.174Z,926.64
2017-11-04T01:43:02.077Z,926.67
2017-11-04T01:43:14.959Z,926.63
2017-11-04T01:43:28.491Z,926.65
2017-11-04T01:43:40.861Z,926.6
2017-11-04T01:43:53.780Z,926.65
2017-11-04T01:44:07.271Z,926.64
2017-11-04T01:44:20.187Z,926.63
2017-11-04T01:44:33.066Z,926.62
2017-11-04T01:44:47.317Z,926.62
2017-11-04T01:45:00.758Z,926.61
2017-11-04T01:45:13.680Z,926.63
2017-11-04T01:45:26.570Z,926.58
2017-11-04T01:45:38.406Z,926.59
2017-11-04T01:45:51.851Z,926.61
2017-11-04T01:46:04.782Z,926.62
2017-11-04T01:46:17.726Z,926.61
2017-11-04T01:46:31.137Z,926.61
2017-11-04T01:46:44.015Z,926.59
2017-11-04T01:46:57.457Z,926.59
2017-11-04T01:47:10.333Z,926.59
2017-11-04T01:47:23.789Z,926.59
2017-11-04T01:47:37.193Z,926.56
2017-11-04T01:47:50.640Z,926.6
2017-11-04T01:48:03.552Z,926.62
2017-11-04T01:48:16.436Z,926.6
2017-11-04T01:48:29.950Z,926.59
2017-11-04T01:48:43.409Z,926.61
2017-11-04T01:48:55.753Z,926.59
2017-11-04T01:49:09.181Z,926.56
2017-11-04T01:49:22.635Z,926.58
2017-11-04T01:49:35.562Z,926.59
2017-11-04T01:49:48.620Z,926.59
2017-11-04T01:50:00.972Z,926.58
2017-11-04T01:50:14.418Z,926.57
2017-11-04T01:50:27.302Z,926.55
2017-11-04T01:50:40.728Z,926.55
2017-11-04T01:50:53.633Z,926.57
2017-11-04T01:51:06.601Z,926.58
2017-11-04T01:51:19.526Z,926.55
2017-11-04T01:51:32.456Z,926.53
2017-11-04T01:51:45.905Z,926.55
2017-11-04T01:51:59.340Z,926.56
2017-11-04T01:52:12.801Z,926.57
2017-11-04T01:52:26.240Z,926.53
2017-11-04T01:52:39.153Z,926.54
2017-11-04T01:52:51.493Z,926.57
2017-11-04T01:53:04.409Z,926.57
2017-11-04T01:53:17.939Z,926.55
2017-11-04T01:53:30.860Z,926.59
2017-11-04T01:53:44.287Z,926.55
2017-11-04T01:53:57.172Z,926.56
2017-11-04T01:54:10.075Z,926.54
2017-11-04T01:54:22.992Z,926.52
2017-11-04T01:54:35.917Z,926.58
2017-11-04T01:54:48.340Z,926.53
2017-11-04T01:55:01.746Z,926.52
2017-11-04T01:55:14.134Z,926.54
2017-11-04T01:55:26.484Z,926.52
2017-11-04T01:55:39.968Z,926.55
2017-11-04T01:55:52.919Z,926.57
2017-11-04T01:56:06.345Z,926.56
2017-11-04T01:56:19.842Z,926.52
2017-11-04T01:56:32.200Z,926.52
2017-11-04T01:56:45.625Z,926.54
2017-11-04T01:56:59.096Z,926.51
2017-11-04T01:57:12.597Z,926.53
2017-11-04T01:57:26.003Z,926.52
2017-11-04T01:57:39.454Z,926.49
2017-11-04T01:57:52.880Z,926.52
2017-11-04T01:58:06.392Z,926.53
2017-11-04T01:58:19.852Z,926.52
2017-11-04T01:58:32.685Z,926.52
2017-11-04T01:58:46.125Z,926.5
2017-11-04T01:58:59.030Z,926.49
2017-11-04T01:59:12.470Z,926.52
2017-11-04T01:59:25.393Z,926.52
2017-11-04T01:59:38.857Z,926.52
2017-11-04T01:59:52.329Z,926.53
2017-11-04T02:00:05.242Z,926.53
2017-11-04T02:00:18.727Z,926.51
2017-11-04T02:00:31.694Z,926.51
2017-11-04T02:00:45.166Z,926.51
2017-11-04T02:00:58.640Z,926.51
2017-11-04T02:01:11.038Z,926.55
2017-11-04T02:01:23.945Z,926.54
2017-11-04T02:01:35.765Z,926.58
2017-11-04T02:01:48.709Z,926.57
2017-11-04T02:02:01.601Z,926.56
2017-11-04T02:02:15.063Z,926.57
2017-11-04T02:02:27.956Z,926.55
2017-11-04T02:02:40.861Z,926.55
2017-11-04T02:02:53.825Z,926.53
2017-11-04T02:03:06.694Z,926.54
2017-11-04T02:03:19.631Z,926.53
2017-11-04T02:03:32.548Z,926.49
2017-11-04T02:03:46.038Z,926.52
2017-11-04T02:03:59.469Z,926.53
2017-11-04T02:04:11.868Z,926.51
2017-11-04T02:04:25.314Z,926.53
2017-11-04T02:04:38.225Z,926.54
2017-11-04T02:04:51.745Z,926.53
2017-11-04T02:05:04.656Z,926.54
2017-11-04T02:05:17.559Z,926.48
2017-11-04T02:05:31.018Z,926.53
2017-11-04T02:05:44.527Z,926.49
2017-11-04T02:05:57.972Z,926.54
2017-11-04T02:06:10.297Z,926.5
2017-11-04T02:06:23.711Z,926.52
2017-11-04T02:06:36.593Z,926.51
2017-11-04T02:06:50.078Z,926.5
2017-11-04T02:07:03.525Z,926.51
2017-11-04T02:07:16.416Z,926.54
2017-11-04T02:07:29.374Z,926.54
2017-11-04T02:07:42.851Z,926.51
2017-11-04T02:07:56.345Z,926.51
2017-11-04T02:08:09.313Z,926.53
2017-11-04T02:08:22.224Z,926.5
2017-11-04T02:08:35.689Z,926.52
2017-11-04T02:08:49.157Z,926.55
2017-11-04T02:09:02.053Z,926.5
2017-11-04T02:09:14.989Z,926.51
2017-11-04T02:09:27.922Z,926.49
2017-11-04T02:09:40.287Z,926.52
2017-11-04T02:09:53.230Z,926.51
2017-11-04T02:10:06.670Z,926.5
2017-11-04T02:10:20.044Z,926.51
2017-11-04T02:10:32.424Z,926.51
2017-11-04T02:10:45.887Z,926.5
2017-11-04T02:10:58.806Z,926.53
2017-11-04T02:11:12.258Z,926.55
2017-11-04T02:11:25.676Z,926.52
2017-11-04T02:11:38.604Z,926.53
2017-11-04T02:11:51.453Z,926.54
2017-11-04T02:12:03.847Z,926.55
2017-11-04T02:12:17.353Z,926.53
2017-11-04T02:12:29.759Z,926.54
2017-11-04T02:12:43.211Z,926.53
2017-11-04T02:12:56.684Z,926.55
2017-11-04T02:13:10.191Z,926.58
2017-11-04T02:13:23.088Z,926.54
2017-11-04T02:13:36.612Z,926.56
2017-11-04T02:13:48.998Z,926.55
2017-11-04T02:14:02.477Z,926.54
2017-11-04T02:14:14.837Z,926.59
2017-11-04T02:14:28.236Z,926.58
2017-11-04T02:14:41.673Z,926.56
2017-11-04T02:14:55.277Z,926.56
2017-11-04T02:15:08.707Z,926.55
2017-11-04T02:15:22.209Z,926.55
2017-11-04T02:15:34.623Z,926.56
2017-11-04T02:15:47.545Z,926.56
2017-11-04T02:15:59.920Z,926.57
2017-11-04T02:16:13.372Z,926.59
2017-11-04T02:16:26.882Z,926.6
2017-11-04T02:16:40.318Z,926.56
2017-11-04T02:16:53.769Z,926.53
2017-11-04T02:17:06.664Z,926.55
2017-11-04T02:17:20.135Z,926.56
2017-11-04T02:17:33.590Z,926.57
2017-11-04T02:17:47.019Z,926.62
2017-11-04T02:18:00.498Z,926.58
2017-11-04T02:18:13.434Z,926.59
2017-11-04T02:18:26.344Z,926.6
2017-11-04T02:18:39.219Z,926.62
2017-11-04T02:18:52.650Z,926.59
2017-11-04T02:19:06.078Z,926.6
2017-11-04T02:19:18.982Z,926.6
2017-11-04T02:19:31.893Z,926.56
2017-11-04T02:19:44.253Z,926.58
2017-11-04T02:19:57.247Z,926.6
2017-11-04T02:20:10.228Z,926.62
2017-11-04T02:20:23.735Z,926.64
2017-11-04T02:20:36.118Z,926.64
2017-11-04T02:20:48.458Z,926.64
2017-11-04T02:21:01.369Z,926.64
2017-11-04T02:21:13.751Z,926.67
2017-11-04T02:21:25.573Z,926.7
2017-11-04T02:21:39.037Z,926.67
2017-11-04T02:21:52.508Z,926.73
2017-11-04T02:22:05.956Z,926.73
2017-11-04T02:22:18.881Z,926.74
2017-11-04T02:22:31.822Z,926.8
2017-11-04T02:22:43.630Z,926.83
2017-11-04T02:22:55.995Z,926.79
2017-11-04T02:23:09.414Z,926.84
2017-11-04T02:23:22.853Z,926.82
2017-11-04T02:23:35.758Z,926.86
2017-11-04T02:23:49.248Z,926.88
2017-11-04T02:24:02.729Z,926.88
2017-11-04T02:24:15.634Z,926.9
2017-11-04T02:24:29.019Z,926.87
2017-11-04T02:24:41.996Z,926.87
2017-11-04T02:24:55.457Z,926.86
2017-11-04T02:25:08.354Z,926.89
2017-11-04T02:25:21.781Z,926.9
2017-11-04T02:25:34.678Z,926.89
2017-11-04T02:25:47.600Z,926.89
2017-11-04T02:26:01.129Z,926.88
2017-11-04T02:26:14.042Z,926.85
2017-11-04T02:26:26.915Z,926.83
2017-11-04T02:26:41.633Z,926.84
2017-11-04T02:26:54.510Z,926.82
2017-11-04T02:27:07.426Z,926.84
2017-11-04T02:27:20.943Z,926.82
2017-11-04T02:27:34.411Z,926.8
2017-11-04T02:27:47.846Z,926.8
2017-11-04T02:28:01.287Z,926.79
2017-11-04T02:28:13.632Z,926.77
2017-11-04T02:28:26.521Z,926.75
2017-11-04T02:28:40.008Z,926.75
2017-11-04T02:28:52.939Z,926.74
2017-11-04T02:29:06.341Z,926.73
2017-11-04T02:29:19.425Z,926.76
2017-11-04T02:29:32.335Z,926.74
2017-11-04T02:29:45.781Z,926.71
2017-11-04T02:29:58.145Z,926.77
2017-11-04T02:30:12.277Z,926.74
2017-11-04T02:30:25.741Z,926.72
2017-11-04T02:30:38.629Z,926.76
2017-11-04T02:30:52.045Z,926.72
2017-11-04T02:31:05.469Z,926.75
2017-11-04T02:31:18.313Z,926.73
2017-11-04T02:31:31.783Z,926.77
2017-11-04T02:31:44.701Z,926.75
2017-11-04T02:31:57.621Z,926.83
2017-11-04T02:32:11.050Z,926.78
2017-11-04T02:32:24.550Z,926.82
2017-11-04T02:32:37.462Z,926.8
2017-11-04T02:32:50.429Z,926.82
2017-11-04T02:33:03.337Z,926.79
2017-11-04T02:33:16.235Z,926.79
2017-11-04T02:33:29.172Z,926.78
2017-11-04T02:33:42.601Z,926.78
2017-11-04T02:33:55.547Z,926.76
2017-11-04T02:34:08.935Z,926.76
2017-11-04T02:34:22.384Z,926.73
2017-11-04T02:34:35.865Z,926.72
2017-11-04T02:34:49.346Z,926.7
2017-11-04T02:35:01.177Z,926.73
2017-11-04T02:35:14.770Z,926.71
2017-11-04T02:35:27.651Z,926.7
2017-11-04T02:35:41.081Z,926.69
2017-11-04T02:35:54.546Z,926.73
2017-11-04T02:36:08.028Z,926.69
2017-11-04T02:36:21.524Z,926.7
2017-11-04T02:36:35.009Z,926.72
2017-11-04T02:36:47.889Z,926.71
2017-11-04T02:37:00.735Z,926.75
2017-11-04T02:37:13.111Z,926.79
2017-11-04T02:37:25.451Z,926.8
2017-11-04T02:37:38.350Z,926.78
2017-11-04T02:37:51.765Z,926.79
2017-11-04T02:38:05.137Z,926.78
2017-11-04T02:38:18.049Z,926.81
2017-11-04T02:38:31.007Z,926.82
2017-11-04T02:38:43.908Z,926.82
2017-11-04T02:38:56.780Z,926.8
2017-11-04T02:39:10.223Z,926.81
2017-11-04T02:39:22.585Z,926.78
2017-11-04T02:39:35.510Z,926.79
2017-11-04T02:39:48.969Z,926.79
2017-11-04T02:40:02.434Z,926.79
2017-11-04T02:40:15.900Z,926.8
2017-11-04T02:40:28.813Z,926.78
2017-11-04T02:40:41.685Z,926.79
2017-11-04T02:40:54.653Z,926.8
2017-11-04T02:41:08.096Z,926.8
2017-11-04T02:41:21.524Z,926.74
2017-11-04T02:41:34.359Z,926.78
2017-11-04T02:41:47.848Z,926.79
2017-11-04T02:42:00.180Z,926.77
2017-11-04T02:42:13.584Z,926.78
2017-11-04T02:42:26.553Z,926.78
2017-11-04T02:42:39.495Z,926.76
2017-11-04T02:42:52.948Z,926.77
2017-11-04T02:43:05.847Z,926.74
2017-11-04T02:43:17.682Z,926.76
2017-11-04T02:43:30.617Z,926.78
2017-11-04T02:43:43.587Z,926.79
2017-11-04T02:43:57.068Z,926.77
2017-11-04T02:44:10.596Z,926.82
2017-11-04T02:44:24.073Z,926.83
2017-11-04T02:44:37.524Z,926.84
2017-11-04T02:44:51.044Z,926.83